createdAt,value
2022-10-29T00:00:59.240Z,15.20
2022-10-29T00:03:27.787Z,15.20
2022-10-29T00:05:59.072Z,15.10
2022-10-29T00:08:27.842Z,15.10
2022-10-29T00:10:55.975Z,15.00
2022-10-29T00:13:24.094Z,15.00
2022-10-29T00:15:52.142Z,15.00
2022-10-29T00:18:20.167Z,15.00
2022-10-29T00:20:49.769Z,15.00
2022-10-29T00:23:19.146Z,15.00
2022-10-29T00:25:47.158Z,15.00
2022-10-29T00:28:15.384Z,15.00
2022-10-29T00:30:43.430Z,15.00
2022-10-29T00:33:13.044Z,15.00
2022-10-29T00:35:41.157Z,15.00
2022-10-29T00:38:09.195Z,14.90
2022-10-29T00:40:39.550Z,14.90
2022-10-29T00:43:14.536Z,15.00
2022-10-29T00:45:46.686Z,14.90
2022-10-29T00:48:14.830Z,14.80
2022-10-29T00:50:43.199Z,14.80
2022-10-29T00:53:11.359Z,14.70
2022-10-29T00:55:41.623Z,14.60
2022-10-29T00:58:12.555Z,14.50
2022-10-29T01:00:40.683Z,14.40
2022-10-29T01:03:08.884Z,14.40
2022-10-29T01:05:37.938Z,14.30
2022-10-29T01:08:06.712Z,14.30
2022-10-29T01:10:50.979Z,14.20
2022-10-29T01:13:38.208Z,14.10
2022-10-29T01:16:13.936Z,14.10
2022-10-29T01:18:51.085Z,14.10
2022-10-29T01:21:40.620Z,14.00
2022-10-29T01:24:55.571Z,14.10
2022-10-29T01:27:57.643Z,14.20
2022-10-29T01:30:59.346Z,14.30
2022-10-29T01:33:36.858Z,14.40
2022-10-29T01:36:14.520Z,14.30
2022-10-29T01:38:53.910Z,14.20
2022-10-29T01:41:28.453Z,14.20
2022-10-29T01:44:00.302Z,14.20
2022-10-29T01:46:38.235Z,14.20
2022-10-29T01:49:13.436Z,14.20
2022-10-29T01:51:42.766Z,14.30
2022-10-29T01:54:13.049Z,14.30
2022-10-29T01:56:41.125Z,14.30
2022-10-29T01:59:23.165Z,14.20
2022-10-29T02:02:16.519Z,14.20
2022-10-29T02:04:55.728Z,14.10
2022-10-29T02:07:39.585Z,14.10
2022-10-29T02:10:14.516Z,14.00
2022-10-29T02:12:48.493Z,14.00
2022-10-29T02:15:21.017Z,13.90
2022-10-29T02:17:50.703Z,13.90
2022-10-29T02:20:19.377Z,13.90
2022-10-29T02:22:47.436Z,13.80
2022-10-29T02:25:15.520Z,13.80
2022-10-29T02:27:43.629Z,13.80
2022-10-29T02:30:12.125Z,13.80
2022-10-29T02:32:40.120Z,13.80
2022-10-29T02:35:10.558Z,13.70
2022-10-29T02:37:38.752Z,13.70
2022-10-29T02:40:07.846Z,13.60
2022-10-29T02:42:35.994Z,13.60
2022-10-29T02:45:04.300Z,13.60
2022-10-29T02:47:32.491Z,13.50
2022-10-29T02:50:00.563Z,13.50
2022-10-29T02:52:30.040Z,13.50
2022-10-29T02:54:58.086Z,13.50
2022-10-29T02:57:26.217Z,13.50
2022-10-29T02:59:54.322Z,13.50
2022-10-29T03:07:44.440Z,13.50
2022-10-29T03:10:12.499Z,13.50
2022-10-29T03:12:40.524Z,13.50
2022-10-29T03:15:09.540Z,13.60
2022-10-29T03:17:37.591Z,13.50
2022-10-29T03:20:06.734Z,13.50
2022-10-29T03:22:34.765Z,13.50
2022-10-29T03:25:04.280Z,13.50
2022-10-29T03:27:32.347Z,13.50
2022-10-29T03:30:00.379Z,13.40
2022-10-29T03:32:28.459Z,13.40
2022-10-29T03:34:59.811Z,13.40
2022-10-29T03:37:28.115Z,13.50
2022-10-29T03:39:56.129Z,13.40
2022-10-29T03:42:25.468Z,13.40
2022-10-29T03:44:53.574Z,13.40
2022-10-29T03:47:21.615Z,13.50
2022-10-29T03:49:49.670Z,13.60
2022-10-29T03:52:17.838Z,13.60
2022-10-29T03:54:45.863Z,13.50
2022-10-29T03:57:13.945Z,13.50
2022-10-29T03:59:45.889Z,13.60
2022-10-29T04:02:16.518Z,13.60
2022-10-29T04:04:44.606Z,13.60
2022-10-29T04:07:13.575Z,13.60
2022-10-29T04:09:41.661Z,13.70
2022-10-29T04:12:10.562Z,13.70
2022-10-29T04:14:44.458Z,13.70
2022-10-29T04:17:15.554Z,13.80
2022-10-29T04:19:43.988Z,13.80
2022-10-29T04:30:36.157Z,14.00
2022-10-29T04:33:05.563Z,14.00
2022-10-29T04:35:33.643Z,14.00
2022-10-29T04:38:08.401Z,14.00
2022-10-29T04:40:36.452Z,14.00
2022-10-29T04:43:04.532Z,14.00
2022-10-29T04:45:32.643Z,14.00
2022-10-29T04:48:01.887Z,13.90
2022-10-29T04:50:31.986Z,13.80
2022-10-29T04:53:00.546Z,13.80
2022-10-29T04:55:29.126Z,13.70
2022-10-29T04:57:57.732Z,13.60
2022-10-29T05:00:26.162Z,13.60
2022-10-29T05:02:54.806Z,13.50
2022-10-29T05:05:23.399Z,13.50
2022-10-29T05:07:58.139Z,13.50
2022-10-29T05:10:27.315Z,13.40
2022-10-29T05:12:59.978Z,13.40
2022-10-29T05:15:28.857Z,13.40
2022-10-29T05:17:57.608Z,13.30
2022-10-29T05:20:26.424Z,13.30
2022-10-29T05:23:02.027Z,13.20
2022-10-29T05:25:31.616Z,13.20
2022-10-29T05:28:04.954Z,13.10
2022-10-29T05:30:33.662Z,13.10
2022-10-29T05:33:01.752Z,13.10
2022-10-29T05:35:30.136Z,13.00
2022-10-29T05:37:58.273Z,13.00
2022-10-29T05:40:27.720Z,13.00
2022-10-29T05:42:56.275Z,13.00
2022-10-29T05:45:24.577Z,13.00
2022-10-29T05:47:58.130Z,12.90
2022-10-29T05:50:26.531Z,12.90
2022-10-29T05:52:58.320Z,12.90
2022-10-29T05:55:28.507Z,12.90
2022-10-29T05:58:00.368Z,12.90
2022-10-29T06:00:30.550Z,12.90
2022-10-29T06:02:58.898Z,12.80
2022-10-29T06:10:15.685Z,12.80
2022-10-29T06:12:45.175Z,12.80
2022-10-29T06:15:13.193Z,12.80
2022-10-29T06:17:42.405Z,12.80
2022-10-29T06:20:12.610Z,12.80
2022-10-29T06:22:40.793Z,12.90
2022-10-29T06:25:09.928Z,12.90
2022-10-29T06:27:38.249Z,13.00
2022-10-29T06:30:09.280Z,13.00
2022-10-29T06:32:37.427Z,13.10
2022-10-29T06:35:05.966Z,13.10
2022-10-29T06:37:34.236Z,13.10
2022-10-29T06:40:02.345Z,13.10
2022-10-29T06:42:30.402Z,13.10
2022-10-29T06:44:58.448Z,13.10
2022-10-29T06:47:27.929Z,13.20
2022-10-29T06:49:55.987Z,13.30
2022-10-29T06:52:24.050Z,13.40
2022-10-29T06:54:52.123Z,13.40
2022-10-29T06:57:22.195Z,13.60
2022-10-29T06:59:50.252Z,13.70
2022-10-29T07:02:19.974Z,13.80
2022-10-29T07:04:49.861Z,14.00
2022-10-29T07:07:18.246Z,14.30
2022-10-29T07:09:46.333Z,14.40
2022-10-29T07:12:14.419Z,14.50
2022-10-29T07:14:42.481Z,14.60
2022-10-29T07:17:10.606Z,14.80
2022-10-29T07:19:38.737Z,14.90
2022-10-29T07:22:08.176Z,15.10
2022-10-29T07:24:36.249Z,15.30
2022-10-29T07:27:06.679Z,15.60
2022-10-29T07:29:35.289Z,15.80
2022-10-29T07:32:09.145Z,16.00
2022-10-29T07:34:37.220Z,16.20
2022-10-29T07:37:05.354Z,16.70
2022-10-29T07:39:34.810Z,17.00
2022-10-29T07:42:02.815Z,17.40
2022-10-29T07:44:30.841Z,17.70
2022-10-29T07:46:58.845Z,17.90
2022-10-29T07:49:26.873Z,17.90
2022-10-29T07:51:54.915Z,18.00
2022-10-29T07:54:22.934Z,18.00
2022-10-29T07:56:54.490Z,18.00
2022-10-29T07:59:22.583Z,18.30
2022-10-29T08:01:50.691Z,18.40
2022-10-29T08:04:18.840Z,18.50
2022-10-29T08:06:46.914Z,18.40
2022-10-29T08:09:15.766Z,18.40
2022-10-29T08:11:43.942Z,18.40
2022-10-29T08:14:14.943Z,18.30
2022-10-29T08:16:43.836Z,18.30
2022-10-29T08:19:12.002Z,18.60
2022-10-29T08:21:40.143Z,19.60
2022-10-29T08:24:08.562Z,20.40
2022-10-29T08:26:36.608Z,21.30
2022-10-29T08:29:04.970Z,21.80
2022-10-29T08:31:34.423Z,22.40
2022-10-29T08:34:04.982Z,23.10
2022-10-29T08:36:36.580Z,23.40
2022-10-29T08:39:04.739Z,23.40
2022-10-29T08:41:41.461Z,23.10
2022-10-29T08:44:41.274Z,22.90
2022-10-29T08:47:16.603Z,22.50
2022-10-29T08:49:48.566Z,22.80
2022-10-29T08:52:20.862Z,22.80
2022-10-29T08:54:55.161Z,22.30
2022-10-29T08:57:26.645Z,21.70
2022-10-29T09:00:03.450Z,21.30
2022-10-29T09:02:32.891Z,21.10
2022-10-29T09:05:02.632Z,20.80
2022-10-29T09:07:45.150Z,20.80
2022-10-29T09:10:22.607Z,20.90
2022-10-29T09:13:27.608Z,21.00
2022-10-29T09:16:18.197Z,21.00
2022-10-29T09:19:15.873Z,21.00
2022-10-29T09:21:52.690Z,20.90
2022-10-29T09:24:29.483Z,20.80
2022-10-29T09:27:00.093Z,20.90
2022-10-29T09:29:47.862Z,20.70
2022-10-29T09:32:21.464Z,20.40
2022-10-29T09:34:53.650Z,20.20
2022-10-29T09:37:29.063Z,20.20
2022-10-29T09:39:59.544Z,20.10
2022-10-29T09:42:35.664Z,20.30
2022-10-29T09:45:09.417Z,20.40
2022-10-29T09:47:46.467Z,20.60
2022-10-29T09:50:23.293Z,20.50
2022-10-29T09:52:52.514Z,20.40
2022-10-29T09:55:25.838Z,20.40
2022-10-29T09:57:54.704Z,20.30
2022-10-29T10:00:25.366Z,20.40
2022-10-29T10:03:01.231Z,20.30
2022-10-29T10:05:35.141Z,20.20
2022-10-29T10:08:08.542Z,20.20
2022-10-29T10:10:40.408Z,20.30
2022-10-29T10:13:17.143Z,20.30
2022-10-29T10:15:53.331Z,20.30
2022-10-29T10:18:24.094Z,20.20
2022-10-29T10:21:04.785Z,20.20
2022-10-29T10:23:46.370Z,20.10
2022-10-29T10:26:35.313Z,20.20
2022-10-29T10:29:15.192Z,20.30
2022-10-29T10:31:44.785Z,20.30
2022-10-29T10:34:18.270Z,20.20
2022-10-29T10:36:51.188Z,20.30
2022-10-29T10:39:31.884Z,20.50
2022-10-29T10:42:02.856Z,20.50
2022-10-29T10:44:31.650Z,20.60
2022-10-29T10:47:07.743Z,20.60
2022-10-29T10:49:37.238Z,20.60
2022-10-29T10:52:15.278Z,20.60
2022-10-29T10:54:47.344Z,20.60
2022-10-29T10:57:22.663Z,20.80
2022-10-29T10:59:58.432Z,20.90
2022-10-29T11:02:35.640Z,20.90
2022-10-29T11:05:11.179Z,20.90
2022-10-29T11:07:47.021Z,21.10
2022-10-29T11:10:16.499Z,21.40
2022-10-29T11:12:47.640Z,21.60
2022-10-29T11:15:23.013Z,21.70
2022-10-29T11:17:55.763Z,21.70
2022-10-29T11:20:27.701Z,21.70
2022-10-29T11:23:07.459Z,21.80
2022-10-29T11:25:42.711Z,21.80
2022-10-29T11:28:22.312Z,22.00
2022-10-29T11:30:56.062Z,22.20
2022-10-29T11:33:28.340Z,22.20
2022-10-29T11:36:02.056Z,22.10
2022-10-29T11:38:38.594Z,22.10
2022-10-29T11:41:16.024Z,22.00
2022-10-29T11:43:48.712Z,21.90
2022-10-29T11:46:24.166Z,21.70
2022-10-29T11:49:02.725Z,21.50
2022-10-29T11:51:36.691Z,21.40
2022-10-29T11:54:14.477Z,21.30
2022-10-29T11:56:51.398Z,21.20
2022-10-29T11:59:41.192Z,21.10
2022-10-29T12:02:23.918Z,21.10
2022-10-29T12:04:59.566Z,21.20
2022-10-29T12:07:40.951Z,21.40
2022-10-29T12:10:43.898Z,21.50
2022-10-29T12:13:29.786Z,21.50
2022-10-29T12:16:09.689Z,21.60
2022-10-29T12:18:47.041Z,21.50
2022-10-29T12:21:26.096Z,21.50
2022-10-29T12:24:03.870Z,21.70
2022-10-29T12:26:39.790Z,21.80
2022-10-29T12:29:15.731Z,22.10
2022-10-29T12:31:50.466Z,22.30
2022-10-29T12:34:28.506Z,22.40
2022-10-29T12:37:10.581Z,22.40
2022-10-29T12:39:42.179Z,22.40
2022-10-29T12:42:17.874Z,22.40
2022-10-29T12:44:53.567Z,22.30
2022-10-29T12:47:27.252Z,22.30
2022-10-29T12:50:05.989Z,22.40
2022-10-29T12:52:39.953Z,22.40
2022-10-29T12:55:11.857Z,22.30
2022-10-29T12:57:41.309Z,22.30
2022-10-29T13:00:34.315Z,22.20
2022-10-29T13:03:03.149Z,22.30
2022-10-29T13:05:43.432Z,22.40
2022-10-29T13:08:35.275Z,22.50
2022-10-29T13:11:03.422Z,22.60
2022-10-29T13:13:51.298Z,22.50
2022-10-29T13:16:22.893Z,22.50
2022-10-29T13:19:19.297Z,22.60
2022-10-29T13:22:03.018Z,22.70
2022-10-29T13:24:32.028Z,22.70
2022-10-29T13:27:02.999Z,22.70
2022-10-29T13:29:50.011Z,22.70
2022-10-29T13:32:39.709Z,22.80
2022-10-29T13:35:40.908Z,22.90
2022-10-29T13:38:15.964Z,23.00
2022-10-29T13:41:13.131Z,23.00
2022-10-29T13:43:44.244Z,23.00
2022-10-29T13:46:34.443Z,22.90
2022-10-29T13:49:08.483Z,22.80
2022-10-29T13:51:44.210Z,22.80
2022-10-29T13:54:20.337Z,22.80
2022-10-29T13:56:53.936Z,22.60
2022-10-29T13:59:35.889Z,22.50
2022-10-29T14:02:21.249Z,22.60
2022-10-29T14:04:53.514Z,22.60
2022-10-29T14:07:26.099Z,22.50
2022-10-29T14:09:57.172Z,22.40
2022-10-29T14:12:30.727Z,22.20
2022-10-29T14:15:05.177Z,22.20
2022-10-29T14:17:34.613Z,22.10
2022-10-29T14:20:02.631Z,22.00
2022-10-29T14:22:35.275Z,22.00
2022-10-29T14:25:05.532Z,22.00
2022-10-29T14:27:33.559Z,22.00
2022-10-29T14:30:15.400Z,22.00
2022-10-29T14:32:46.396Z,22.00
2022-10-29T14:35:17.797Z,22.10
2022-10-29T14:37:47.714Z,22.10
2022-10-29T14:40:21.198Z,22.20
2022-10-29T14:42:54.563Z,22.20
2022-10-29T14:45:28.395Z,22.20
2022-10-29T14:47:59.489Z,22.10
2022-10-29T14:50:29.636Z,22.00
2022-10-29T14:53:01.341Z,22.00
2022-10-29T14:55:34.626Z,22.00
2022-10-29T14:58:05.905Z,21.90
2022-10-29T15:00:37.267Z,21.90
2022-10-29T15:03:08.091Z,21.80
2022-10-29T15:05:38.832Z,21.70
2022-10-29T15:08:14.056Z,21.60
2022-10-29T15:10:47.385Z,21.70
2022-10-29T15:13:25.005Z,21.70
2022-10-29T15:15:56.515Z,21.60
2022-10-29T15:18:27.452Z,21.50
2022-10-29T15:20:57.034Z,21.50
2022-10-29T15:23:28.327Z,21.50
2022-10-29T15:26:02.629Z,21.40
2022-10-29T15:28:33.106Z,21.30
2022-10-29T15:31:03.709Z,21.30
2022-10-29T15:33:33.881Z,21.20
2022-10-29T15:36:04.294Z,21.20
2022-10-29T15:39:08.639Z,21.10
2022-10-29T15:41:40.333Z,21.00
2022-10-29T15:44:30.677Z,21.00
2022-10-29T15:47:00.431Z,21.00
2022-10-29T15:49:32.679Z,20.90
2022-10-29T15:52:01.739Z,20.90
2022-10-29T15:54:30.314Z,20.80
2022-10-29T15:56:58.423Z,20.80
2022-10-29T15:59:27.515Z,20.60
2022-10-29T16:01:55.730Z,20.50
2022-10-29T16:04:23.932Z,20.50
2022-10-29T16:06:53.469Z,20.40
2022-10-29T16:09:22.180Z,20.40
2022-10-29T16:11:52.060Z,20.40
2022-10-29T16:14:20.094Z,20.30
2022-10-29T16:16:48.209Z,20.30
2022-10-29T16:19:16.246Z,20.30
2022-10-29T16:21:44.361Z,20.20
2022-10-29T16:24:16.527Z,20.20
2022-10-29T16:26:44.597Z,20.20
2022-10-29T16:29:16.052Z,20.20
2022-10-29T16:31:44.961Z,20.10
2022-10-29T16:34:15.145Z,20.10
2022-10-29T16:36:45.327Z,20.10
2022-10-29T16:39:13.329Z,20.10
2022-10-29T16:41:42.759Z,20.10
2022-10-29T16:44:10.876Z,20.20
2022-10-29T16:46:38.930Z,20.20
2022-10-29T16:49:07.004Z,20.20
2022-10-29T16:51:35.041Z,20.10
2022-10-29T16:54:03.129Z,20.10
2022-10-29T16:56:31.196Z,20.10
2022-10-29T16:59:02.014Z,20.00
2022-10-29T17:01:30.410Z,20.10
2022-10-29T17:03:58.829Z,20.00
2022-10-29T17:06:27.077Z,20.00
2022-10-29T17:08:55.169Z,19.90
2022-10-29T17:11:23.241Z,19.90
2022-10-29T17:13:51.305Z,19.90
2022-10-29T17:16:20.793Z,19.80
2022-10-29T17:18:50.724Z,19.80
2022-10-29T17:21:19.222Z,19.80
2022-10-29T17:23:47.375Z,19.70
2022-10-29T17:26:15.424Z,19.70
2022-10-29T17:28:43.763Z,19.70
2022-10-29T17:31:12.286Z,19.70
2022-10-29T17:33:41.687Z,19.70
2022-10-29T17:36:13.459Z,19.80
2022-10-29T17:38:41.756Z,19.70
2022-10-29T17:41:09.961Z,19.70
2022-10-29T17:43:38.078Z,19.70
2022-10-29T17:46:06.454Z,19.60
2022-10-29T17:48:34.713Z,19.70
2022-10-29T17:51:04.544Z,19.70
2022-10-29T17:53:32.873Z,19.70
2022-10-29T17:56:01.473Z,19.70
2022-10-29T17:58:31.022Z,19.80
2022-10-29T18:01:05.712Z,19.80
2022-10-29T18:03:33.852Z,19.60
2022-10-29T18:06:04.750Z,19.60
2022-10-29T18:08:33.517Z,19.60
2022-10-29T18:11:06.011Z,19.60
2022-10-29T18:13:35.694Z,19.50
2022-10-29T18:16:03.700Z,19.40
2022-10-29T18:18:47.961Z,19.40
2022-10-29T18:21:26.351Z,19.30
2022-10-29T18:23:54.503Z,19.30
2022-10-29T18:26:25.681Z,19.20
2022-10-29T18:28:54.575Z,19.20
2022-10-29T18:31:24.632Z,19.10
2022-10-29T18:33:52.782Z,19.10
2022-10-29T18:36:20.848Z,19.00
2022-10-29T18:38:52.377Z,19.00
2022-10-29T18:41:20.757Z,18.90
2022-10-29T18:43:49.097Z,18.80
2022-10-29T18:46:17.182Z,18.80
2022-10-29T18:48:47.419Z,18.70
2022-10-29T18:51:17.500Z,18.70
2022-10-29T18:53:45.775Z,18.60
2022-10-29T18:56:16.873Z,18.60
2022-10-29T18:58:45.721Z,18.50
2022-10-29T19:01:16.154Z,18.50
2022-10-29T19:03:45.040Z,18.40
2022-10-29T19:06:14.158Z,18.30
2022-10-29T19:08:44.153Z,18.30
2022-10-29T19:11:15.294Z,18.20
2022-10-29T19:13:43.545Z,18.10
2022-10-29T19:16:14.397Z,18.00
2022-10-29T19:18:42.985Z,18.00
2022-10-29T19:21:12.702Z,18.00
2022-10-29T19:23:41.228Z,17.90
2022-10-29T19:26:11.935Z,17.90
2022-10-29T19:28:42.519Z,17.90
2022-10-29T19:31:12.487Z,17.90
2022-10-29T19:33:41.004Z,17.90
2022-10-29T19:36:10.694Z,17.90
2022-10-29T19:38:38.908Z,17.90
2022-10-29T19:41:07.312Z,17.90
2022-10-29T19:43:35.415Z,18.00
2022-10-29T19:46:07.983Z,18.00
2022-10-29T19:48:36.354Z,18.10
2022-10-29T19:51:04.670Z,18.00
2022-10-29T19:53:32.899Z,18.10
2022-10-29T19:56:00.985Z,18.20
2022-10-29T19:58:31.374Z,18.20
2022-10-29T20:01:06.545Z,18.20
2022-10-29T20:03:34.735Z,18.20
2022-10-29T20:06:02.872Z,18.20
2022-10-29T20:08:31.259Z,18.30
2022-10-29T20:11:00.538Z,18.20
2022-10-29T20:13:28.924Z,18.20
2022-10-29T20:15:57.048Z,18.20
2022-10-29T20:18:26.698Z,18.20
2022-10-29T20:20:55.676Z,18.10
2022-10-29T20:23:25.661Z,18.20
2022-10-29T20:25:53.959Z,18.10
2022-10-29T20:28:22.042Z,18.10
2022-10-29T20:30:50.068Z,18.10
2022-10-29T20:33:18.192Z,18.10
2022-10-29T20:35:47.615Z,18.20
2022-10-29T20:38:15.582Z,18.20
2022-10-29T20:40:43.636Z,18.20
2022-10-29T20:43:11.729Z,18.20
2022-10-29T20:45:39.802Z,18.10
2022-10-29T20:48:08.062Z,18.00
2022-10-29T20:50:36.100Z,18.00
2022-10-29T20:53:05.535Z,17.90
2022-10-29T20:55:34.807Z,17.90
2022-10-29T20:58:02.824Z,17.90
2022-10-29T21:00:30.849Z,17.90
2022-10-29T21:02:58.951Z,17.90
2022-10-29T21:05:27.103Z,18.00
2022-10-29T21:07:55.570Z,18.00
2022-10-29T21:10:28.520Z,17.90
2022-10-29T21:12:56.701Z,18.00
2022-10-29T21:15:24.885Z,17.90
2022-10-29T21:17:52.926Z,17.90
2022-10-29T21:20:21.039Z,17.90
2022-10-29T21:22:49.098Z,17.80
2022-10-29T21:25:17.357Z,17.90
2022-10-29T21:27:46.783Z,17.90
2022-10-29T21:30:15.214Z,17.80
2022-10-29T21:32:43.229Z,17.90
2022-10-29T21:35:11.378Z,17.90
2022-10-29T21:37:39.435Z,17.90
2022-10-29T21:40:08.618Z,17.80
2022-10-29T21:42:36.648Z,17.90
2022-10-29T21:45:07.163Z,17.90
2022-10-29T21:47:35.212Z,17.80
2022-10-29T21:50:03.349Z,17.70
2022-10-29T21:52:32.072Z,17.70
2022-10-29T21:55:00.204Z,17.70
2022-10-29T21:57:28.277Z,17.60
2022-10-29T21:59:56.363Z,17.60
2022-10-29T22:02:25.865Z,17.50
2022-10-29T22:04:54.102Z,17.50
2022-10-29T22:07:22.256Z,17.50
2022-10-29T22:09:50.355Z,17.50
2022-10-29T22:12:18.433Z,17.50
2022-10-29T22:14:47.644Z,17.50
2022-10-29T22:17:16.428Z,17.50
2022-10-29T22:19:45.917Z,17.50
2022-10-29T22:22:13.989Z,17.50
2022-10-29T22:24:42.047Z,17.50
2022-10-29T22:27:10.096Z,17.50
2022-10-29T22:29:38.112Z,17.40
2022-10-29T22:32:08.028Z,17.40
2022-10-29T22:34:36.168Z,17.40
2022-10-29T22:37:05.640Z,17.40
2022-10-29T22:39:33.677Z,17.30
2022-10-29T22:42:01.733Z,17.20
2022-10-29T22:44:29.843Z,17.20
2022-10-29T22:46:57.936Z,17.10
2022-10-29T22:49:25.952Z,17.10
2022-10-29T22:51:58.636Z,17.10
2022-10-29T22:54:30.830Z,17.10
2022-10-29T22:57:01.850Z,17.10
2022-10-29T22:59:29.965Z,17.00
2022-10-29T23:01:58.147Z,17.00
2022-10-29T23:04:26.887Z,16.90
2022-10-29T23:07:00.738Z,16.90
2022-10-29T23:09:31.350Z,16.80
2022-10-29T23:11:59.419Z,16.70
2022-10-29T23:14:28.691Z,16.60
2022-10-29T23:16:56.813Z,16.60
2022-10-29T23:19:24.816Z,16.50
2022-10-29T23:21:52.870Z,16.50
2022-10-29T23:24:20.881Z,16.50
2022-10-29T23:26:50.390Z,16.50
2022-10-29T23:29:18.435Z,16.40
2022-10-29T23:31:46.472Z,16.40
2022-10-29T23:34:14.644Z,16.40
2022-10-29T23:36:42.778Z,16.30
2022-10-29T23:39:12.348Z,16.30
2022-10-29T23:41:40.417Z,16.30
2022-10-29T23:44:09.836Z,16.30
2022-10-29T23:46:37.928Z,16.20
2022-10-29T23:49:05.959Z,16.20
2022-10-29T23:54:03.067Z,16.20
2022-10-29T23:56:31.097Z,16.20
2022-10-29T23:58:59.157Z,16.20
